Time;durP1;ratioP1;P1;durP2;ratioP2;P2;SDS_P1;SDS_P2;PMS_P1;PMS_P2;Temp;Humidity;BMP_temperature;BMP_pressure;BME280_temperature;BME280_humidity;BME280_pressure;Samples;Min_cycle;Max_cycle;Signal;HPM_P1;HPM_P2
2022/02/10 00:04:58;;;;;;;11.48;5.53;;;8.30;99.90;;;;;;6068629;23;20013;-88
2022/02/10 00:21:11;;;;;;;11.43;5.53;;;8.20;99.90;;;;;;6056058;23;20067;-89
2022/02/10 00:34:11;;;;;;;24.75;9.18;;;8.10;99.90;;;;;;6083199;23;20017;-88
2022/02/10 00:34:43;;;;;;;14.65;5.95;;;8.10;99.90;;;;;;6083553;23;20021;-88
2022/02/10 00:37:17;;;;;;;12.60;6.88;;;8.10;99.90;;;;;;6068383;23;20057;-88
2022/02/10 00:40:10;;;;;;;13.82;5.97;;;8.20;99.90;;;;;;6052301;23;20061;-88
2022/02/10 00:42:35;;;;;;;14.75;6.38;;;8.10;99.90;;;;;;6047010;23;20014;-88
2022/02/10 00:45:04;;;;;;;12.35;6.85;;;8.20;99.90;;;;;;6065675;23;20017;-87
2022/02/10 00:47:36;;;;;;;18.15;6.68;;;8.10;99.90;;;;;;6089226;23;20651;-87
2022/02/10 00:50:05;;;;;;;19.33;7.03;;;8.10;99.90;;;;;;6079842;23;20013;-88
2022/02/10 00:52:31;;;;;;;15.60;7.05;;;8.10;99.90;;;;;;6091981;23;20061;-88
2022/02/10 00:54:56;;;;;;;16.58;8.13;;;8.10;99.90;;;;;;6078575;23;20034;-87
2022/02/10 00:57:25;;;;;;;17.25;7.72;;;8.00;99.90;;;;;;6078198;23;20029;-88
2022/02/10 01:06:57;;;;;;;10.45;6.93;;;7.90;99.90;;;;;;6078389;23;20003;-87
2022/02/10 01:11:04;;;;;;;13.25;8.27;;;7.90;99.90;;;;;;6090205;23;20034;-88
2022/02/10 01:13:43;;;;;;;20.40;8.40;;;7.90;99.90;;;;;;6093089;23;20009;-88
2022/02/10 01:24:34;;;;;;;;;;;7.70;99.90;;;;;;6094375;23;20120;-88
2022/02/10 01:29:46;;;;;;;14.52;6.90;;;7.60;99.90;;;;;;6083532;23;20060;-88
2022/02/10 01:32:13;;;;;;;17.23;7.30;;;7.60;99.90;;;;;;6075975;23;20018;-88
2022/02/10 01:34:46;;;;;;;17.08;7.25;;;7.50;99.90;;;;;;6069362;23;20067;-88
2022/02/10 01:37:17;;;;;;;21.45;8.82;;;7.60;99.90;;;;;;6042842;23;20498;-90
2022/02/10 01:39:53;;;;;;;16.10;7.60;;;7.40;99.90;;;;;;6092494;23;20014;-89
2022/02/10 02:03:48;;;;;;;17.92;8.35;;;7.30;99.90;;;;;;6091623;23;20080;-88
2022/02/10 02:06:22;;;;;;;17.10;7.60;;;7.30;99.90;;;;;;6077167;23;20029;-88
2022/02/10 02:08:51;;;;;;;21.10;9.25;;;7.30;99.90;;;;;;6055763;23;20013;-90
2022/02/10 02:11:26;;;;;;;18.00;9.18;;;7.30;99.90;;;;;;6065589;23;20069;-88
2022/02/10 02:13:52;;;;;;;11.10;6.35;;;7.20;99.90;;;;;;6066518;23;20474;-88
2022/02/10 02:16:25;;;;;;;17.02;7.47;;;7.20;99.90;;;;;;6091542;23;20014;-88
2022/02/10 02:18:52;;;;;;;17.45;8.57;;;7.10;99.90;;;;;;6090727;23;20006;-88
2022/02/10 02:21:22;;;;;;;20.80;8.75;;;7.10;99.90;;;;;;6090648;23;20065;-87
2022/02/10 02:23:51;;;;;;;15.82;7.05;;;7.00;99.90;;;;;;6065629;23;20096;-88
2022/02/10 02:26:23;;;;;;;17.63;7.20;;;7.00;99.90;;;;;;6086667;23;20018;-87
2022/02/10 02:28:53;;;;;;;22.23;9.60;;;7.00;99.90;;;;;;6080286;23;20010;-89
2022/02/10 02:31:44;;;;;;;16.67;7.70;;;7.00;99.90;;;;;;6068161;23;20630;-88
2022/02/10 02:39:53;;;;;;;17.35;8.70;;;6.80;99.90;;;;;;6090834;23;20021;-87
2022/02/10 03:04:43;;;;;;;12.20;7.97;;;7.10;99.90;;;;;;6075967;23;20406;-86
2022/02/10 03:07:13;;;;;;;16.15;8.77;;;7.00;99.90;;;;;;6081551;23;20006;-87
2022/02/10 03:09:43;;;;;;;14.00;8.95;;;7.00;99.90;;;;;;6056613;23;20447;-87
2022/02/10 03:12:11;;;;;;;18.85;9.10;;;7.00;99.90;;;;;;6085573;23;20021;-86
2022/02/10 03:14:45;;;;;;;15.90;9.45;;;7.00;99.90;;;;;;6066633;23;20014;-87
2022/02/10 03:17:39;;;;;;;14.82;8.32;;;7.00;99.90;;;;;;6080181;23;20331;-87
2022/02/10 04:00:56;;;;;;;10.73;7.18;;;6.40;99.90;;;;;;6074599;23;20017;-88
2022/02/10 04:04:11;;;;;;;20.88;9.00;;;6.40;99.90;;;;;;6086546;23;20014;-88
2022/02/10 04:17:26;;;;;;;15.98;7.68;;;6.30;99.90;;;;;;6095047;23;20392;-88
2022/02/10 04:23:02;;;;;;;21.20;11.35;;;6.20;99.90;;;;;;6092875;23;20457;-89
2022/02/10 04:28:08;;;;;;;22.63;11.73;;;5.90;99.90;;;;;;6092660;23;20126;-88
2022/02/10 04:31:01;;;;;;;23.80;11.85;;;6.00;99.90;;;;;;6079623;23;20089;-87
2022/02/10 05:31:22;;;;;;;30.45;11.30;;;5.70;99.90;;;;;;6078672;23;20014;-88
2022/02/10 05:33:42;;;;;;;17.88;9.00;;;5.80;99.90;;;;;;6095798;23;20009;-87
2022/02/10 05:36:08;;;;;;;16.27;6.97;;;5.90;99.90;;;;;;6077038;23;20010;-88
2022/02/10 05:39:07;;;;;;;16.30;9.25;;;5.90;99.90;;;;;;6079377;23;20002;-87
2022/02/10 05:44:16;;;;;;;21.05;10.68;;;5.90;99.90;;;;;;6091343;23;20006;-88
2022/02/10 05:54:58;;;;;;;19.27;8.60;;;6.10;99.90;;;;;;6077124;23;20141;-87
2022/02/10 05:57:52;;;;;;;15.40;8.38;;;6.10;99.90;;;;;;6028148;23;20483;-88
2022/02/10 06:38:27;;;;;;;11.57;6.28;;;6.00;99.90;;;;;;6081910;23;20071;-90
2022/02/10 06:45:41;;;;;;;12.35;6.97;;;6.20;99.90;;;;;;6085970;23;20013;-88
2022/02/10 07:05:31;;;;;;;14.25;7.43;;;6.30;99.90;;;;;;6080086;23;20045;-87
2022/02/10 07:43:25;;;;;;;8.60;5.47;;;6.30;99.90;;;;;;6089102;23;20335;-88
2022/02/10 07:47:28;;;;;;;13.05;6.95;;;6.40;99.90;;;;;;6067018;23;20530;-88
2022/02/10 07:50:22;;;;;;;14.45;6.03;;;6.40;99.90;;;;;;6094818;23;20084;-88
2022/02/10 08:29:35;;;;;;;20.10;7.13;;;6.60;99.90;;;;;;6092694;23;20526;-88
2022/02/10 08:56:24;;;;;;;17.10;8.48;;;6.60;99.90;;;;;;6080970;23;20017;-89
2022/02/10 08:59:28;;;;;;;19.77;9.25;;;6.70;99.90;;;;;;6056966;23;20006;-88
2022/02/10 09:05:04;;;;;;;20.90;8.75;;;6.80;99.90;;;;;;6093743;23;20069;-89
2022/02/10 09:25:32;;;;;;;15.30;8.55;;;6.80;99.90;;;;;;6078340;23;20033;-89
2022/02/10 09:51:28;;;;;;;21.13;11.05;;;7.10;99.90;;;;;;6081511;23;20037;-90
2022/02/10 10:03:18;;;;;;;19.95;10.27;;;7.30;99.90;;;;;;6066339;23;20123;-90
2022/02/10 10:06:25;;;;;;;14.07;8.00;;;7.20;99.90;;;;;;6023299;23;20455;-90
2022/02/10 10:45:01;;;;;;;18.58;9.60;;;7.20;99.90;;;;;;6056002;23;20092;-89
2022/02/10 10:50:30;;;;;;;31.52;18.88;;;7.20;99.90;;;;;;6029302;23;20053;-91
2022/02/10 10:53:14;;;;;;;25.42;14.75;;;7.20;99.90;;;;;;6091486;23;20096;-91
2022/02/10 10:56:22;;;;;;;21.55;11.38;;;7.10;99.90;;;;;;6037316;23;20005;-91
2022/02/10 11:38:34;;;;;;;19.77;12.77;;;7.10;99.90;;;;;;6051589;23;20041;-91
2022/02/10 11:41:55;;;;;;;20.75;13.05;;;7.10;99.90;;;;;;5988659;23;20265;-91
2022/02/10 12:36:52;;;;;;;33.53;17.25;;;7.10;99.90;;;;;;6042117;23;20010;-90
2022/02/10 14:17:42;;;;;;;;;;;;;;;;;;;;;
2022/02/10 14:20:22;;;;;;;;;;;;;;;;;;;;;
2022/02/10 14:34:09;;;;;;;;;;;;;;;;;;;;;
2022/02/10 15:51:53;;;;;;;16.95;8.60;;;8.20;99.90;;;;;;6021632;23;20019;-89
2022/02/10 16:12:22;;;;;;;10.05;6.43;;;7.80;99.90;;;;;;6053507;23;20462;-89
2022/02/10 16:17:19;;;;;;;8.45;5.72;;;7.70;99.90;;;;;;6032726;23;20471;-88
2022/02/10 16:20:02;;;;;;;10.90;7.40;;;7.70;99.90;;;;;;6042041;23;20014;-88
2022/02/10 16:22:38;;;;;;;10.40;7.07;;;7.70;99.90;;;;;;6042971;23;20432;-88
2022/02/10 16:25:12;;;;;;;11.95;7.03;;;7.80;99.90;;;;;;6031883;23;20023;-89
2022/02/10 16:27:40;;;;;;;9.48;6.47;;;7.70;99.90;;;;;;6013752;23;20009;-89
2022/02/10 16:30:24;;;;;;;13.68;9.63;;;7.70;99.90;;;;;;6024940;23;20015;-89
2022/02/10 16:32:54;;;;;;;12.27;6.95;;;7.60;99.90;;;;;;6023952;23;20037;-88
2022/02/10 16:35:27;;;;;;;19.15;10.55;;;7.50;99.90;;;;;;6105841;23;20018;-91
2022/02/10 16:38:06;;;;;;;13.70;8.15;;;7.50;99.90;;;;;;6038554;23;20014;-90
2022/02/10 16:40:39;;;;;;;12.98;8.02;;;7.50;99.90;;;;;;6046039;23;20014;-89
2022/02/10 16:43:05;;;;;;;20.73;10.93;;;7.50;99.90;;;;;;6065705;23;20469;-91
2022/02/10 16:45:30;;;;;;;14.75;9.30;;;7.50;99.90;;;;;;6009274;23;20026;-89
2022/02/10 16:47:58;;;;;;;26.13;11.27;;;7.40;99.90;;;;;;6066338;23;20018;-89
2022/02/10 16:50:43;;;;;;;;;;;;;;;;;;;;;
2022/02/10 16:53:14;;;;;;;11.35;8.80;;;7.30;99.90;;;;;;6030242;23;20085;-88
2022/02/10 16:55:55;;;;;;;16.95;7.63;;;7.20;99.90;;;;;;6056262;23;20392;-90
2022/02/10 17:27:39;;;;;;;11.80;6.32;;;7.00;99.90;;;;;;6081884;23;20089;-90
2022/02/10 17:35:45;;;;;;;13.48;6.35;;;6.70;99.90;;;;;;6081350;23;20021;-89
2022/02/10 17:52:59;;;;;;;18.15;8.15;;;6.70;99.90;;;;;;6049423;23;20037;-89
2022/02/10 17:55:27;;;;;;;14.32;7.72;;;6.60;99.90;;;;;;6039521;23;20342;-88
2022/02/10 17:58:05;;;;;;;16.10;7.38;;;6.50;99.90;;;;;;6078165;23;20021;-87
2022/02/10 18:00:31;;;;;;;18.58;7.43;;;6.40;99.90;;;;;;6091253;23;20014;-88
2022/02/10 18:03:01;;;;;;;22.42;7.82;;;6.30;99.90;;;;;;6073116;23;20045;-89
2022/02/10 18:08:23;;;;;;;19.52;6.28;;;6.20;99.90;;;;;;6070750;23;20017;-88
2022/02/10 18:16:42;;;;;;;9.55;3.80;;;6.00;99.90;;;;;;6075046;23;20006;-89
2022/02/10 18:19:17;;;;;;;7.65;4.00;;;6.00;99.90;;;;;;6054430;23;20006;-89
2022/02/10 18:29:59;;;;;;;5.53;4.15;;;5.90;99.90;;;;;;6059737;23;20011;-90
2022/02/10 19:07:01;;;;;;;19.60;10.45;;;5.60;99.90;;;;;;5898167;23;20019;-90
2022/02/10 19:09:53;;;;;;;;;;;;;;;;;;;;;
2022/02/10 19:13:10;;;;;;;;;;;;;;;;;;;;;
2022/02/10 19:15:45;;;;;;;19.13;8.60;;;5.40;99.90;;;;;;5957993;23;21241;-90
2022/02/10 19:18:34;;;;;;;13.35;7.70;;;5.40;99.90;;;;;;5938811;23;20104;-90
2022/02/10 19:21:45;;;;;;;;;;;;;;;;;;;;;
2022/02/10 19:39:02;;;;;;;8.35;4.05;;;5.50;99.90;;;;;;5828906;24;20458;-90
2022/02/10 19:46:17;;;;;;;;;;;;;;;;;;;;;
2022/02/10 20:06:23;;;;;;;8.23;3.03;;;5.00;99.90;;;;;;6141613;23;20025;-86
2022/02/10 20:09:11;;;;;;;8.98;3.13;;;5.00;99.90;;;;;;6064069;23;20029;-86
2022/02/10 20:11:37;;;;;;;3.92;2.53;;;5.00;99.90;;;;;;6092946;23;20024;-87
2022/02/10 20:14:03;;;;;;;7.32;3.20;;;4.90;99.90;;;;;;6056754;23;20018;-86
2022/02/10 20:17:00;;;;;;;8.82;3.40;;;4.90;99.90;;;;;;6025741;23;20021;-86
2022/02/10 20:19:40;;;;;;;7.32;3.55;;;4.90;99.90;;;;;;6033491;23;20096;-86
2022/02/10 20:22:22;;;;;;;13.27;4.22;;;4.90;99.90;;;;;;6085012;23;20018;-86
2022/02/10 20:25:09;;;;;;;5.20;3.50;;;4.90;99.90;;;;;;6063209;23;20040;-86
2022/02/10 20:27:35;;;;;;;6.95;3.80;;;4.90;99.90;;;;;;6104712;23;20013;-86
2022/02/10 20:30:33;;;;;;;10.10;4.28;;;5.00;99.90;;;;;;6061902;23;20025;-86
2022/02/10 20:32:59;;;;;;;7.60;4.88;;;4.90;99.90;;;;;;6079196;23;20061;-86
2022/02/10 20:35:44;;;;;;;8.30;4.57;;;4.90;99.90;;;;;;6053069;23;20013;-85
2022/02/10 20:38:11;;;;;;;9.15;3.50;;;4.70;99.90;;;;;;6039453;23;20028;-86
2022/02/10 20:40:56;;;;;;;8.02;3.10;;;4.50;99.90;;;;;;6068628;23;20048;-86
2022/02/10 20:43:21;;;;;;;4.80;3.10;;;4.40;99.90;;;;;;6079274;23;20394;-86
2022/02/10 20:46:08;;;;;;;3.30;2.50;;;4.50;99.90;;;;;;6022123;23;20121;-85
2022/02/10 20:48:36;;;;;;;6.50;2.67;;;4.50;99.90;;;;;;6045018;23;20401;-85
2022/02/10 20:51:18;;;;;;;6.20;2.50;;;4.50;99.90;;;;;;6061335;23;20017;-86
2022/02/10 20:53:45;;;;;;;5.15;3.00;;;4.60;99.90;;;;;;6066911;23;20010;-85
2022/02/10 20:56:34;;;;;;;5.70;2.95;;;4.50;99.90;;;;;;6092034;23;20021;-86
2022/02/10 20:59:07;;;;;;;6.55;3.22;;;4.60;99.90;;;;;;6050368;23;20521;-86
2022/02/10 21:01:35;;;;;;;3.65;2.20;;;4.60;99.90;;;;;;6045862;23;20006;-85
2022/02/10 21:04:04;;;;;;;4.70;2.00;;;4.70;99.90;;;;;;6092313;23;20010;-86
2022/02/10 21:09:14;;;;;;;6.03;3.40;;;4.90;99.90;;;;;;6093932;23;20013;-87
2022/02/10 21:11:40;;;;;;;4.45;3.63;;;4.70;99.90;;;;;;6094597;23;20014;-87
2022/02/10 21:14:13;;;;;;;7.35;3.83;;;4.70;99.90;;;;;;6090327;23;20493;-86
2022/02/10 21:16:42;;;;;;;3.22;2.92;;;4.80;99.90;;;;;;6092765;23;20013;-86
2022/02/10 21:19:10;;;;;;;2.85;2.53;;;4.70;99.90;;;;;;6080398;23;20532;-87
2022/02/10 21:21:36;;;;;;;3.92;2.47;;;4.80;99.90;;;;;;6090471;23;20010;-86
2022/02/10 21:24:08;;;;;;;4.68;2.47;;;4.70;99.90;;;;;;6090191;23;20031;-87
2022/02/10 21:26:43;;;;;;;5.65;2.60;;;4.70;99.90;;;;;;6092525;23;20064;-87
2022/02/10 21:29:09;;;;;;;5.47;2.47;;;4.70;99.90;;;;;;6092790;23;20324;-87
2022/02/10 21:31:43;;;;;;;5.03;1.75;;;4.60;99.90;;;;;;6091796;23;20080;-88
2022/02/10 21:34:21;;;;;;;3.67;1.88;;;4.60;99.90;;;;;;6093738;23;20021;-86
2022/02/10 21:36:59;;;;;;;3.67;1.98;;;4.60;99.90;;;;;;6092569;23;20061;-86
2022/02/10 21:39:34;;;;;;;1.20;0.80;;;4.60;99.90;;;;;;6094149;23;20483;-86
2022/02/10 21:43:10;;;;;;;4.35;1.88;;;4.50;99.90;;;;;;6093771;23;20017;-86
2022/02/10 21:56:36;;;;;;;6.25;2.33;;;4.40;99.90;;;;;;6056281;23;20037;-87
2022/02/10 22:18:53;;;;;;;4.85;1.45;;;4.40;99.90;;;;;;6084962;23;20029;-87
2022/02/10 22:24:16;;;;;;;3.58;1.55;;;4.60;99.90;;;;;;6059118;23;20101;-87
2022/02/10 22:26:45;;;;;;;3.65;1.27;;;4.50;99.90;;;;;;6077813;23;20013;-87
2022/02/10 22:32:05;;;;;;;3.90;1.52;;;4.40;99.90;;;;;;6080214;23;20057;-87
2022/02/10 22:34:36;;;;;;;5.90;2.38;;;4.40;99.90;;;;;;6000258;23;20012;-86
2022/02/10 22:37:18;;;;;;;;;;;;;;;;;;;;;
2022/02/10 22:41:09;;;;;;;3.08;1.70;;;4.30;99.90;;;;;;6067805;23;20085;-87
2022/02/10 22:44:03;;;;;;;;;;;;;;;;;;;;;
2022/02/10 22:47:06;;;;;;;1.67;0.52;;;4.40;99.90;;;;;;5950949;23;20904;-87
2022/02/10 22:49:32;;;;;;;2.03;1.02;;;4.30;99.90;;;;;;5964353;23;20378;-87
2022/02/10 22:52:29;;;;;;;4.72;2.28;;;4.40;99.90;;;;;;6026099;23;20052;-87
2022/02/10 22:55:31;;;;;;;8.60;3.05;;;4.40;99.90;;;;;;6060201;23;20030;-87
2022/02/10 23:00:57;;;;;;;3.92;1.33;;;4.10;99.90;;;;;;6042053;23;20033;-87
2022/02/10 23:03:25;;;;;;;2.50;1.20;;;4.00;99.90;;;;;;6047400;23;20020;-87
2022/02/10 23:06:15;;;;;;;2.65;1.10;;;4.10;99.90;;;;;;6023645;23;20010;-86
2022/02/10 23:08:51;;;;;;;8.85;2.35;;;4.00;99.90;;;;;;6006429;23;20049;-86
2022/02/10 23:11:28;;;;;;;5.10;1.60;;;4.10;99.90;;;;;;6054118;23;20014;-87
2022/02/10 23:13:58;;;;;;;6.50;2.47;;;4.10;99.90;;;;;;6040109;23;20010;-86
2022/02/10 23:16:24;;;;;;;2.05;0.95;;;4.00;99.90;;;;;;6067967;23;20014;-86
2022/02/10 23:18:50;;;;;;;3.35;1.50;;;4.10;99.90;;;;;;6050983;23;20240;-87
2022/02/10 23:21:29;;;;;;;7.32;1.45;;;4.10;99.90;;;;;;6054293;23;20014;-87
2022/02/10 23:23:55;;;;;;;3.83;2.00;;;4.10;99.90;;;;;;6056047;23;20065;-86
2022/02/10 23:26:21;;;;;;;3.15;1.20;;;4.20;99.90;;;;;;6044398;23;20018;-87
2022/02/10 23:28:51;;;;;;;2.97;1.10;;;4.20;99.90;;;;;;6078810;23;20046;-86
2022/02/10 23:31:18;;;;;;;2.90;1.63;;;4.20;99.90;;;;;;6048256;23;20436;-86
2022/02/10 23:34:22;;;;;;;4.70;2.47;;;4.00;99.90;;;;;;6054101;23;20010;-87
2022/02/10 23:36:51;;;;;;;3.63;1.95;;;4.10;99.90;;;;;;6041809;23;20013;-87
2022/02/10 23:39:30;;;;;;;3.70;2.17;;;4.10;99.90;;;;;;6076203;23;20631;-87
2022/02/10 23:42:05;;;;;;;2.42;1.70;;;4.00;99.90;;;;;;6047531;23;20140;-87
2022/02/10 23:44:34;;;;;;;1.17;1.00;;;3.90;99.90;;;;;;6057707;23;20002;-86
2022/02/10 23:47:20;;;;;;;5.50;2.80;;;3.90;99.90;;;;;;6080554;23;20017;-87
2022/02/10 23:49:56;;;;;;;;;;;;;;;;;;;;;
2022/02/10 23:52:25;;;;;;;4.80;2.53;;;3.80;99.90;;;;;;6054222;23;20020;-87
2022/02/10 23:55:03;;;;;;;4.20;1.38;;;3.80;99.90;;;;;;6052509;23;20030;-87
2022/02/10 23:57:52;;;;;;;5.20;2.40;;;3.80;99.90;;;;;;6097601;23;20018;-85
